Time;durP1;ratioP1;P1;durP2;ratioP2;P2;SDS_P1;SDS_P2;PMS_P1;PMS_P2;Temp;Humidity;BMP_temperature;BMP_pressure;BME280_temperature;BME280_humidity;BME280_pressure;Samples;Min_cycle;Max_cycle;Signal;HPM_P1;HPM_P2
2021/12/16 00:02:37;;;;;;;121.50;58.55;;;;;;;7.58;100.00;103324.72;5052373;28;20728;-88
2021/12/16 00:05:22;;;;;;;119.65;58.30;;;;;;;7.59;100.00;103330.91;5051096;28;20136;-88
2021/12/16 00:08:02;;;;;;;118.85;57.75;;;;;;;7.59;100.00;103320.22;5051336;28;20040;-88
2021/12/16 00:10:34;;;;;;;115.13;56.42;;;;;;;7.69;100.00;103347.50;5052232;28;20472;-88
2021/12/16 00:34:43;;;;;;;113.35;56.63;;;;;;;7.53;100.00;103323.59;5039913;28;20523;-88
2021/12/16 00:37:08;;;;;;;108.47;55.92;;;;;;;7.54;100.00;103335.94;5032997;28;20057;-88
2021/12/16 00:39:36;;;;;;;118.30;57.75;;;;;;;7.58;100.00;103345.25;5050966;28;20029;-88
2021/12/16 00:42:09;;;;;;;114.30;56.70;;;;;;;7.58;100.00;103345.25;5050625;28;20017;-88
2021/12/16 00:45:04;;;;;;;116.38;57.85;;;;;;;7.45;100.00;103329.00;5051502;28;20033;-88
2021/12/16 00:49:52;;;;;;;118.28;58.33;;;;;;;7.54;100.00;103338.59;5046965;28;20472;-88
2021/12/16 00:55:22;;;;;;;111.85;57.45;;;;;;;7.58;100.00;103348.75;5041915;28;20079;-88
2021/12/16 00:57:50;;;;;;;118.07;58.47;;;;;;;7.58;100.00;103345.25;5050228;28;20040;-88
2021/12/16 01:00:16;;;;;;;116.10;57.47;;;;;;;7.51;100.00;103339.78;5051317;28;20075;-88
2021/12/16 01:35:41;;;;;;;117.78;58.00;;;;;;;7.54;100.00;103354.59;5038862;28;20063;-89
2021/12/16 01:38:41;;;;;;;113.93;57.88;;;;;;;7.49;100.00;103346.28;5050526;28;20025;-88
2021/12/16 01:41:33;;;;;;;118.22;58.72;;;;;;;7.51;100.00;103350.47;5050277;28;20040;-88
2021/12/16 01:49:13;;;;;;;114.45;57.92;;;;;;;7.61;100.00;103374.25;5049726;28;20029;-88
2021/12/16 01:57:00;;;;;;;109.93;56.00;;;;;;;7.58;100.00;103374.59;5049362;28;20068;-88
2021/12/16 01:59:33;;;;;;;106.75;56.45;;;;;;;7.63;100.00;103382.06;5048557;28;20037;-88
2021/12/16 02:02:11;;;;;;;114.03;58.22;;;;;;;7.57;100.00;103379.13;5043792;28;20029;-89
2021/12/16 02:04:42;;;;;;;115.45;56.53;;;;;;;7.49;100.00;103363.16;5050528;28;20036;-88
2021/12/16 02:07:25;;;;;;;118.95;57.95;;;;;;;7.57;100.00;103378.28;5050290;28;20404;-88
2021/12/16 02:09:51;;;;;;;112.95;57.00;;;;;;;7.51;100.00;103373.63;5049566;28;20069;-88
2021/12/16 02:32:24;;;;;;;;;;;;;;;;;;;;;
2021/12/16 02:37:59;;;;;;;111.60;57.67;;;;;;;7.57;100.00;103396.97;5050594;28;20510;-88
2021/12/16 02:40:35;;;;;;;109.47;56.13;;;;;;;7.43;100.00;103378.00;5039602;28;20041;-88
2021/12/16 02:43:38;;;;;;;112.65;57.70;;;;;;;7.44;100.00;103381.50;5049715;28;20054;-88
2021/12/16 02:49:04;;;;;;;110.45;57.13;;;;;;;7.45;100.00;103390.34;5025288;28;20040;-88
2021/12/16 02:51:38;;;;;;;110.15;55.55;;;;;;;7.35;100.00;103388.72;5031179;28;20530;-88
2021/12/16 02:54:06;;;;;;;111.95;57.42;;;;;;;7.37;100.00;103386.69;5014156;28;20033;-88
2021/12/16 02:56:41;;;;;;;109.32;56.17;;;;;;;7.45;100.00;103395.69;5050586;28;20071;-88
2021/12/16 02:59:26;;;;;;;115.15;57.58;;;;;;;7.45;100.00;103393.03;5038347;28;20099;-88
2021/12/16 03:02:17;;;;;;;116.07;58.72;;;;;;;7.33;100.00;103380.03;5052779;28;20075;-89
2021/12/16 03:04:52;;;;;;;110.68;57.28;;;;;;;7.42;100.00;103392.34;5052907;28;20036;-88
2021/12/16 03:07:29;;;;;;;112.60;57.83;;;;;;;7.34;100.00;103376.38;5050377;28;20029;-88
2021/12/16 03:10:49;;;;;;;108.75;56.28;;;;;;;7.41;100.00;103382.69;5051915;28;20174;-88
2021/12/16 03:19:03;;;;;;;102.55;55.40;;;;;;;7.32;100.00;103369.56;5051931;28;20098;-88
2021/12/16 03:21:52;;;;;;;111.28;58.35;;;;;;;7.41;100.00;103393.34;5052042;28;20376;-88
2021/12/16 03:30:44;;;;;;;109.18;56.78;;;;;;;7.41;100.00;103397.84;5032789;28;20083;-88
2021/12/16 03:38:53;;;;;;;116.53;59.15;;;;;;;7.30;100.00;103375.09;5052382;28;20025;-88
2021/12/16 03:41:25;;;;;;;110.82;57.67;;;;;;;7.41;100.00;103397.84;5052856;28;20075;-88
2021/12/16 03:44:38;;;;;;;111.45;58.05;;;;;;;7.42;100.00;103399.50;5052067;28;20067;-89
2021/12/16 03:47:18;;;;;;;109.10;56.65;;;;;;;7.28;100.00;103396.56;5028036;28;20049;-88
2021/12/16 03:50:06;;;;;;;113.78;58.25;;;;;;;7.20;100.00;103385.09;5033833;28;20021;-88
2021/12/16 03:52:31;;;;;;;118.43;57.88;;;;;;;7.32;100.00;103401.56;5071019;22;20060;-88
2021/12/16 03:55:19;;;;;;;115.57;58.35;;;;;;;7.16;100.00;103389.13;5032038;28;20100;-89
2021/12/16 03:57:53;;;;;;;113.72;58.22;;;;;;;7.32;100.00;103425.56;5032219;28;20108;-89
2021/12/16 04:03:53;;;;;;;121.80;61.03;;;;;;;7.21;100.00;103408.91;4950148;28;20035;-88
2021/12/16 04:06:49;;;;;;;123.65;60.03;;;;;;;7.11;100.00;103387.81;4934136;28;20072;-89
2021/12/16 04:09:23;;;;;;;122.65;58.20;;;;;;;7.18;100.00;103419.97;4898480;29;20054;-89
2021/12/16 04:12:08;;;;;;;120.68;60.10;;;;;;;7.12;100.00;103413.44;4931521;29;20032;-89
2021/12/16 04:14:34;;;;;;;120.45;61.13;;;;;;;7.17;100.00;103412.09;4991209;28;20042;-89
2021/12/16 04:17:03;;;;;;;126.45;59.97;;;;;;;7.06;100.00;103395.50;5011214;28;20022;-88
2021/12/16 04:19:36;;;;;;;131.82;61.83;;;;;;;7.09;100.00;103400.47;5011718;28;20080;-86
2021/12/16 04:22:29;;;;;;;125.45;57.70;;;;;;;7.06;100.00;103400.81;5011457;28;20493;-87
2021/12/16 04:25:11;;;;;;;127.60;60.83;;;;;;;7.25;100.00;103428.09;5010928;28;20038;-87
2021/12/16 04:27:50;;;;;;;115.28;58.67;;;;;;;7.08;100.00;103405.97;5012000;28;20022;-87
2021/12/16 04:30:32;;;;;;;108.63;57.83;;;;;;;6.94;100.00;103396.81;4980550;28;20038;-87
2021/12/16 04:33:07;;;;;;;121.85;61.38;;;;;;;6.94;100.00;103403.00;5065581;22;20083;-87
2021/12/16 04:35:33;;;;;;;125.95;60.22;;;;;;;7.08;100.00;103419.31;5075190;22;20028;-87
2021/12/16 04:47:32;;;;;;;124.07;59.92;;;;;;;6.85;100.00;103419.19;5050132;28;20098;-86
2021/12/16 05:04:15;;;;;;;129.52;63.17;;;;;;;6.36;100.00;103418.22;5031040;28;20041;-88
2021/12/16 06:27:26;;;;;;;152.57;64.18;;;;;;;4.29;100.00;103480.88;4984155;28;20065;-88
2021/12/16 07:12:17;;;;;;;;;;;;;;;;;;;;;
2021/12/16 07:19:01;;;;;;;161.18;64.35;;;;;;;3.62;100.00;103520.88;5072525;28;20044;-86
2021/12/16 10:02:24;;;;;;;396.02;144.13;;;;;;;5.92;100.00;103696.09;5584473;22;20052;-88
2021/12/16 10:05:42;;;;;;;407.35;144.75;;;;;;;6.10;100.00;103685.41;5091212;28;20480;-88
2021/12/16 11:25:32;;;;;;;;;;;;;;;;;;;;;
2021/12/16 11:31:56;;;;;;;137.07;75.50;;;;;;;8.27;100.00;103726.44;5106185;22;20048;-86
2021/12/16 11:34:34;;;;;;;148.00;78.07;;;;;;;8.27;100.00;103693.56;5071413;28;20173;-86
2021/12/16 11:37:24;;;;;;;145.65;80.18;;;;;;;8.58;100.00;103720.34;5068505;28;20059;-86
2021/12/16 11:39:56;;;;;;;119.20;70.35;;;;;;;8.46;100.00;103693.16;5065478;28;20052;-86
2021/12/16 11:42:33;;;;;;;131.60;84.15;;;;;;;8.78;100.00;103714.59;5064819;23;20059;-86
2021/12/16 11:45:38;;;;;;;136.13;87.68;;;;;;;8.88;100.00;103701.00;5062706;28;20032;-87
2021/12/16 11:48:28;;;;;;;113.93;74.00;;;;;;;8.90;100.00;103713.19;5071352;28;20029;-87
2021/12/16 11:51:22;;;;;;;103.13;67.90;;;;;;;8.93;100.00;103696.81;5072273;23;20071;-87
2021/12/16 11:54:17;;;;;;;90.38;52.40;;;;;;;8.83;100.00;103688.16;5053516;28;20533;-88
2021/12/16 11:57:26;;;;;;;87.32;53.85;;;;;;;9.01;100.00;103711.13;5066539;28;20665;-87
2021/12/16 12:03:19;;;;;;;66.63;42.25;;;;;;;8.70;100.00;103674.53;5055208;28;20168;-87
2021/12/16 12:05:51;;;;;;;66.63;40.15;;;;;;;8.72;100.00;103688.56;5084608;28;20107;-87
2021/12/16 13:06:54;;;;;;;65.55;38.63;;;;;;;8.79;100.00;103658.28;5052208;28;20032;-87
2021/12/16 13:13:22;;;;;;;55.13;35.47;;;;;;;8.94;100.00;103682.44;4982219;28;20445;-88
2021/12/16 13:26:25;;;;;;;45.70;25.58;;;;;;;8.97;100.00;103680.38;4985204;28;20468;-86
2021/12/16 13:48:58;;;;;;;49.55;29.67;;;;;;;8.84;100.00;103697.03;4984712;28;20037;-84
2021/12/16 14:07:13;;;;;;;54.75;28.63;;;;;;;8.55;100.00;103667.25;5079874;28;20036;-85
2021/12/16 14:40:14;;;;;;;44.97;28.00;;;;;;;8.20;100.00;103712.13;5025260;28;20117;-84
2021/12/16 14:45:36;;;;;;;50.25;29.27;;;;;;;7.88;100.00;103700.47;5036040;28;20037;-84
2021/12/16 14:48:28;;;;;;;44.80;27.17;;;;;;;8.01;100.00;103730.19;5036006;28;20396;-84
2021/12/16 14:51:21;;;;;;;47.88;29.70;;;;;;;8.07;100.00;103726.00;5032527;28;20148;-85
2021/12/16 14:54:34;;;;;;;45.95;29.15;;;;;;;7.98;100.00;103703.81;5032236;28;20037;-84
2021/12/16 14:57:12;;;;;;;51.22;31.20;;;;;;;8.08;100.00;103710.78;4953373;28;20823;-84
2021/12/16 14:59:51;;;;;;;53.20;41.83;;;;;;;7.94;100.00;103705.13;5081438;22;20052;-84
2021/12/16 15:02:17;;;;;;;60.78;38.67;;;;;;;8.11;100.00;103732.66;5035223;28;20021;-84
2021/12/16 15:04:43;;;;;;;56.03;35.80;;;;;;;8.03;100.00;103709.44;5052149;28;20025;-84
2021/12/16 15:07:12;;;;;;;57.60;34.42;;;;;;;8.12;100.00;103720.13;5052759;28;20544;-84
2021/12/16 15:09:40;;;;;;;56.72;35.40;;;;;;;8.11;100.00;103721.13;5071522;28;20475;-84
2021/12/16 15:16:18;;;;;;;;;;;;;;;;;;;;;
2021/12/16 15:37:52;;;;;;;60.60;38.10;;;;;;;7.76;100.00;103716.00;5051452;28;20056;-85
2021/12/16 15:43:31;;;;;;;51.00;29.98;;;;;;;7.80;100.00;103733.34;4989804;28;20046;-85
2021/12/16 15:45:58;;;;;;;58.42;32.45;;;;;;;7.80;100.00;103730.69;4973399;28;20113;-85
2021/12/16 15:48:39;;;;;;;51.25;31.30;;;;;;;7.80;100.00;103735.19;4988438;28;20031;-86
2021/12/16 15:51:09;;;;;;;63.65;31.25;;;;;;;7.70;100.00;103732.69;5002518;28;20107;-84
2021/12/16 15:53:39;;;;;;;58.20;34.90;;;;;;;7.72;100.00;103744.88;5018455;28;20025;-85
2021/12/16 15:56:19;;;;;;;59.95;34.08;;;;;;;7.78;100.00;103767.38;5031510;28;20037;-84
2021/12/16 15:58:53;;;;;;;52.20;31.40;;;;;;;7.71;100.00;103755.72;5030318;28;20052;-84
2021/12/16 16:01:23;;;;;;;57.13;31.80;;;;;;;7.72;100.00;103752.06;5031004;28;20112;-84
2021/12/16 16:03:49;;;;;;;49.85;30.40;;;;;;;7.66;100.00;103748.22;5030164;28;20492;-87
2021/12/16 16:06:16;;;;;;;49.08;30.42;;;;;;;7.67;100.00;103765.88;5031348;28;20017;-88
2021/12/16 16:08:48;;;;;;;53.97;32.75;;;;;;;7.69;100.00;103771.88;5030505;28;20468;-88
2021/12/16 16:11:17;;;;;;;49.60;31.08;;;;;;;7.64;100.00;103776.06;5031314;28;20029;-90
2021/12/16 16:13:51;;;;;;;52.03;31.95;;;;;;;7.62;100.00;103770.91;5031237;28;20026;-91
2021/12/16 16:16:19;;;;;;;53.95;33.08;;;;;;;7.61;100.00;103769.22;5031439;28;20460;-89
2021/12/16 16:22:11;;;;;;;52.70;30.92;;;;;;;7.32;100.00;103740.34;5012699;28;20075;-84
2021/12/16 16:24:44;;;;;;;49.20;31.13;;;;;;;7.31;100.00;103752.00;5020107;28;20542;-84
2021/12/16 16:27:35;;;;;;;48.55;31.38;;;;;;;7.26;100.00;103752.50;5028381;28;20025;-84
2021/12/16 16:30:15;;;;;;;53.25;32.45;;;;;;;7.30;100.00;103766.34;5003074;28;20103;-85
2021/12/16 16:50:38;;;;;;;;;;;;;;;;;;;;;
2021/12/16 16:53:12;;;;;;;55.80;36.33;;;;;;;6.38;100.00;103769.63;4950767;28;20046;-84
2021/12/16 16:55:58;;;;;;;54.83;34.17;;;;;;;6.25;100.00;103768.22;5025828;28;20116;-88
2021/12/16 16:58:48;;;;;;;58.88;35.22;;;;;;;6.28;100.00;103796.34;4999778;28;20045;-89
2021/12/16 17:01:33;;;;;;;61.20;34.45;;;;;;;6.12;100.00;103781.09;5010052;28;20022;-88
2021/12/16 17:10:03;;;;;;;59.63;35.78;;;;;;;5.80;100.00;103782.47;5054210;22;20038;-89
2021/12/16 17:12:35;;;;;;;59.20;34.33;;;;;;;5.83;100.00;103783.03;5046573;28;20032;-90
2021/12/16 17:15:11;;;;;;;54.67;33.70;;;;;;;5.76;100.00;103792.59;5032543;28;20032;-88
2021/12/16 17:17:41;;;;;;;61.78;37.03;;;;;;;5.66;100.00;103792.66;5051715;28;20488;-88
2021/12/16 17:20:15;;;;;;;54.85;34.63;;;;;;;5.52;100.00;103790.53;5069836;28;20032;-90
2021/12/16 17:22:48;;;;;;;55.50;34.30;;;;;;;5.57;100.00;103789.09;5053559;28;20554;-89
2021/12/16 17:25:18;;;;;;;56.08;34.17;;;;;;;5.43;100.00;103766.50;5047689;28;20041;-89
2021/12/16 17:27:56;;;;;;;58.63;36.03;;;;;;;5.41;100.00;103784.44;5032014;28;20021;-89
2021/12/16 17:30:42;;;;;;;64.85;36.88;;;;;;;5.32;100.00;103772.03;5050047;28;20533;-89
2021/12/16 18:29:19;;;;;;;71.22;44.80;;;;;;;5.53;100.00;103822.28;5032121;28;20068;-90
2021/12/16 18:59:57;;;;;;;84.95;50.25;;;;;;;5.59;100.00;103824.38;5008686;28;20053;-90
2021/12/16 19:02:29;;;;;;;94.50;54.15;;;;;;;5.64;100.00;103829.22;4993322;28;20481;-90
2021/12/16 19:04:55;;;;;;;91.38;54.53;;;;;;;5.65;100.00;103827.41;4995816;28;20096;-90
2021/12/16 19:07:35;;;;;;;100.07;56.60;;;;;;;5.66;100.00;103827.25;5011993;28;20064;-91
2021/12/16 19:32:43;;;;;;;77.10;49.72;;;;;;;5.70;100.00;103844.59;5253329;22;20054;-91
2021/12/16 19:35:18;;;;;;;79.32;49.92;;;;;;;5.70;100.00;103852.56;5010127;28;20497;-92
2021/12/16 19:37:44;;;;;;;82.65;50.17;;;;;;;5.58;100.00;103832.47;5020374;28;20091;-90
2021/12/16 19:40:37;;;;;;;83.72;49.08;;;;;;;5.70;100.00;103852.56;5013443;28;20029;-90
2021/12/16 20:25:02;;;;;;;70.90;44.15;;;;;;;4.74;100.00;103876.81;5021458;28;20503;-90
2021/12/16 20:28:29;;;;;;;62.60;42.60;;;;;;;4.49;100.00;103865.81;5231999;22;20052;-90
2021/12/16 20:31:46;;;;;;;68.28;45.15;;;;;;;4.47;100.00;103863.28;4969149;28;20405;-91
2021/12/16 20:37:35;;;;;;;66.63;42.03;;;;;;;4.49;100.00;103905.63;6127722;22;20023;-90
2021/12/16 20:40:53;;;;;;;64.47;41.38;;;;;;;4.43;100.00;103906.19;4989993;28;20041;-90
2021/12/16 20:49:27;;;;;;;72.22;42.75;;;;;;;4.52;100.00;103908.00;5197159;22;20515;-87
2021/12/16 20:52:03;;;;;;;81.72;47.58;;;;;;;4.40;100.00;103891.38;5034606;28;20361;-86
2021/12/16 20:54:38;;;;;;;77.32;47.83;;;;;;;4.35;100.00;103889.16;5041455;28;20040;-86
2021/12/16 20:57:12;;;;;;;82.38;46.88;;;;;;;4.46;100.00;103906.75;5050087;28;20485;-86
2021/12/16 20:59:38;;;;;;;86.32;54.60;;;;;;;4.37;100.00;103903.13;5029976;28;20053;-86
2021/12/16 21:02:10;;;;;;;104.57;59.40;;;;;;;4.40;100.00;103892.22;5030032;28;20033;-86
2021/12/16 21:04:43;;;;;;;94.22;54.88;;;;;;;4.61;100.00;103903.66;5029521;28;20033;-86
2021/12/16 21:07:16;;;;;;;99.20;58.17;;;;;;;4.69;100.00;103886.03;5029317;28;20123;-86
2021/12/16 21:09:57;;;;;;;158.07;74.13;;;;;;;4.73;100.00;103873.28;5027670;28;20068;-86
2021/12/16 21:12:23;;;;;;;204.82;89.20;;;;;;;4.87;100.00;103877.31;5029747;28;20507;-86
2021/12/16 21:15:01;;;;;;;159.30;83.05;;;;;;;5.10;100.00;103904.38;5028976;28;20061;-86
2021/12/16 21:17:52;;;;;;;228.68;92.60;;;;;;;5.10;100.00;103892.94;5028909;28;20664;-87
2021/12/16 21:20:28;;;;;;;159.75;86.22;;;;;;;5.20;100.00;103893.72;5029526;28;20056;-86
2021/12/16 21:22:56;;;;;;;164.20;86.93;;;;;;;5.17;100.00;103877.22;5029535;28;20384;-86
2021/12/16 21:25:25;;;;;;;152.27;84.00;;;;;;;5.19;100.00;103864.63;5028864;28;20481;-86
2021/12/16 21:27:53;;;;;;;136.18;81.85;;;;;;;5.44;100.00;103898.50;5029244;28;20017;-86
2021/12/16 21:30:19;;;;;;;127.07;76.65;;;;;;;5.49;100.00;103908.69;5029596;28;20033;-86
2021/12/16 21:32:55;;;;;;;122.13;75.57;;;;;;;5.41;100.00;103879.34;5036835;28;20527;-86
2021/12/16 21:35:31;;;;;;;117.20;72.72;;;;;;;5.39;100.00;103878.66;5029672;28;20384;-87
2021/12/16 21:38:08;;;;;;;123.45;74.00;;;;;;;5.43;100.00;103882.69;5143763;22;20045;-86
2021/12/16 21:40:43;;;;;;;116.20;71.43;;;;;;;5.59;100.00;103898.00;5029915;28;20017;-87
2021/12/16 21:43:35;;;;;;;102.10;64.25;;;;;;;5.59;100.00;103909.50;5012415;28;20021;-86
2021/12/16 21:46:12;;;;;;;112.10;67.97;;;;;;;5.50;100.00;103893.59;5028316;28;20068;-87
2021/12/16 21:48:47;;;;;;;112.57;67.88;;;;;;;5.61;100.00;103899.53;5021813;28;20057;-86
2021/12/16 21:51:27;;;;;;;103.13;63.55;;;;;;;5.57;100.00;103895.50;5020888;28;20065;-86
2021/12/16 21:53:52;;;;;;;106.07;65.55;;;;;;;5.68;100.00;103898.94;5020474;28;20029;-86
2021/12/16 21:56:30;;;;;;;95.57;61.97;;;;;;;5.67;100.00;103886.59;4996496;28;20022;-87
2021/12/16 21:59:06;;;;;;;96.88;60.83;;;;;;;5.65;100.00;103876.13;5013879;28;20030;-87
2021/12/16 22:01:47;;;;;;;95.80;59.38;;;;;;;5.68;100.00;103874.97;5029778;28;20095;-87
2021/12/16 22:04:29;;;;;;;94.85;62.60;;;;;;;5.70;100.00;103884.50;5028855;28;20030;-87
2021/12/16 22:07:07;;;;;;;86.85;55.08;;;;;;;5.73;100.00;103888.69;5027475;28;20447;-86
2021/12/16 22:09:39;;;;;;;91.95;58.00;;;;;;;5.85;100.00;103905.28;5030144;28;20033;-87
2021/12/16 22:12:18;;;;;;;92.32;58.83;;;;;;;5.89;100.00;103910.13;5015476;28;20109;-87
2021/12/16 22:14:51;;;;;;;90.55;58.90;;;;;;;5.80;100.00;103884.44;5014677;28;20037;-87
2021/12/16 22:17:22;;;;;;;87.43;58.70;;;;;;;5.79;100.00;103889.91;5023325;28;20025;-86
2021/12/16 22:20:00;;;;;;;85.93;55.55;;;;;;;5.78;100.00;103891.75;5014986;28;20021;-87
2021/12/16 22:22:31;;;;;;;90.35;58.10;;;;;;;5.91;100.00;103908.16;5015056;28;20053;-87
2021/12/16 22:24:57;;;;;;;;;;;;;;;6.05;100.00;103921.97;5015546;28;20034;-87
2021/12/16 22:27:31;;;;;;;91.30;57.80;;;;;;;5.97;100.00;103908.56;5051968;22;19985;-87
2021/12/16 22:29:57;;;;;;;92.40;58.22;;;;;;;5.91;100.00;103902.84;5053543;28;20025;-87
2021/12/16 22:32:35;;;;;;;90.53;59.20;;;;;;;5.97;100.00;103911.22;5052547;28;20052;-87
2021/12/16 22:35:38;;;;;;;100.85;60.08;;;;;;;5.97;100.00;103904.06;5046642;28;20078;-87
2021/12/16 22:38:17;;;;;;;92.00;57.90;;;;;;;5.86;100.00;103889.16;5030300;28;20041;-86
2021/12/16 22:41:22;;;;;;;95.15;59.97;;;;;;;5.89;100.00;103888.84;5114532;22;20091;-87
2021/12/16 22:43:59;;;;;;;92.22;59.72;;;;;;;5.93;100.00;103899.19;5041021;28;20028;-87
2021/12/16 22:46:31;;;;;;;86.18;56.10;;;;;;;5.89;100.00;103891.50;5046569;28;20082;-87
2021/12/16 22:49:04;;;;;;;82.10;56.20;;;;;;;5.88;100.00;103884.50;5013970;28;20046;-87
2021/12/16 22:51:36;;;;;;;93.70;58.15;;;;;;;6.01;100.00;103915.28;5014244;28;20058;-87
2021/12/16 22:56:51;;;;;;;87.32;55.38;;;;;;;6.14;100.00;103939.72;5090810;22;20409;-86
2021/12/16 22:59:42;;;;;;;84.72;54.45;;;;;;;5.94;100.00;103907.03;5033137;28;20487;-87
2021/12/16 23:02:42;;;;;;;92.25;58.00;;;;;;;6.15;100.00;103937.88;4994694;28;20045;-87
2021/12/16 23:05:33;;;;;;;89.55;57.17;;;;;;;6.00;100.00;103905.63;4951003;28;20466;-87
2021/12/16 23:08:02;;;;;;;101.25;58.85;;;;;;;6.08;100.00;103911.03;4968896;28;20146;-87
2021/12/16 23:10:40;;;;;;;93.15;57.60;;;;;;;6.01;100.00;103904.66;5008553;28;20037;-87
2021/12/16 23:13:23;;;;;;;91.68;55.33;;;;;;;6.20;100.00;103928.47;5016630;28;20361;-87
2021/12/16 23:24:26;;;;;;;97.22;57.97;;;;;;;6.09;100.00;103906.56;5039632;22;20519;-86
2021/12/16 23:26:59;;;;;;;92.28;56.80;;;;;;;6.08;100.00;103913.69;5031819;28;20041;-86
2021/12/16 23:29:25;;;;;;;99.55;57.28;;;;;;;6.10;100.00;103909.06;5032497;22;20048;-86
2021/12/16 23:32:11;;;;;;;101.40;58.65;;;;;;;6.08;100.00;103907.53;5032131;28;20037;-86
2021/12/16 23:34:46;;;;;;;97.45;57.28;;;;;;;6.20;100.00;103927.63;5034130;28;20567;-86
2021/12/16 23:37:23;;;;;;;102.95;58.25;;;;;;;6.20;100.00;103904.50;5031377;28;20087;-86
2021/12/16 23:39:56;;;;;;;93.97;56.30;;;;;;;6.13;100.00;103900.75;5050911;28;20090;-86
2021/12/16 23:54:38;;;;;;;107.85;58.00;;;;;;;6.26;100.00;103899.53;4990258;28;20069;-86
2021/12/16 23:57:16;;;;;;;107.32;55.88;;;;;;;6.25;100.00;103890.72;5035851;22;20492;-86
